createdAt,value
2023-03-06T00:01:19.053Z,9.30
2023-03-06T00:03:49.993Z,9.30
2023-03-06T00:06:17.834Z,9.30
2023-03-06T00:08:45.685Z,9.30
2023-03-06T00:11:16.523Z,9.40
2023-03-06T00:13:44.402Z,9.40
2023-03-06T00:16:12.547Z,9.30
2023-03-06T00:18:40.480Z,9.30
2023-03-06T00:21:09.185Z,9.30
2023-03-06T00:23:37.474Z,9.40
2023-03-06T00:26:09.152Z,9.40
2023-03-06T00:28:38.715Z,9.40
2023-03-06T00:31:06.714Z,9.40
2023-03-06T00:33:35.780Z,9.40
2023-03-06T00:36:06.169Z,9.40
2023-03-06T00:38:36.011Z,9.40
2023-03-06T00:41:11.486Z,9.40
2023-03-06T00:43:40.216Z,9.30
2023-03-06T00:46:09.479Z,9.30
2023-03-06T00:48:40.959Z,9.30
2023-03-06T00:51:08.958Z,9.40
2023-03-06T00:53:37.132Z,9.30
2023-03-06T00:56:05.816Z,9.30
2023-03-06T00:58:33.909Z,9.30
2023-03-06T01:01:01.781Z,9.40
2023-03-06T01:03:29.755Z,9.40
2023-03-06T01:05:57.973Z,9.50
2023-03-06T01:08:25.801Z,9.50
2023-03-06T01:10:57.554Z,9.50
2023-03-06T01:13:25.578Z,9.50
2023-03-06T01:15:53.358Z,9.40
2023-03-06T01:18:22.428Z,9.40
2023-03-06T01:20:50.273Z,9.40
2023-03-06T01:23:18.145Z,9.40
2023-03-06T01:25:46.104Z,9.40
2023-03-06T01:28:13.918Z,9.50
2023-03-06T01:30:41.679Z,9.50
2023-03-06T01:33:09.705Z,9.50
2023-03-06T01:35:39.487Z,9.50
2023-03-06T01:38:07.620Z,9.40
2023-03-06T01:40:37.345Z,9.40
2023-03-06T01:43:24.923Z,9.30
2023-03-06T01:45:53.274Z,9.20
2023-03-06T01:48:23.655Z,9.10
2023-03-06T01:50:54.216Z,9.10
2023-03-06T01:53:22.466Z,9.00
2023-03-06T01:55:50.496Z,9.00
2023-03-06T01:58:20.020Z,8.90
2023-03-06T02:00:48.110Z,8.80
2023-03-06T02:03:27.699Z,8.80
2023-03-06T02:05:56.932Z,8.80
2023-03-06T02:08:25.411Z,8.90
2023-03-06T02:11:12.373Z,8.80
2023-03-06T02:13:42.368Z,8.80
2023-03-06T02:16:11.558Z,8.80
2023-03-06T02:18:41.274Z,8.60
2023-03-06T02:21:20.912Z,8.60
2023-03-06T02:24:00.598Z,8.50
2023-03-06T02:26:29.969Z,8.50
2023-03-06T02:28:59.558Z,8.50
2023-03-06T02:31:32.240Z,8.40
2023-03-06T02:34:08.565Z,8.30
2023-03-06T02:36:42.478Z,8.30
2023-03-06T02:39:11.467Z,8.30
2023-03-06T02:41:39.541Z,8.30
2023-03-06T02:44:08.797Z,8.30
2023-03-06T02:46:36.708Z,8.30
2023-03-06T02:49:04.611Z,8.40
2023-03-06T02:51:32.582Z,8.40
2023-03-06T02:54:00.722Z,8.40
2023-03-06T02:56:28.888Z,8.40
2023-03-06T02:58:58.511Z,8.40
2023-03-06T03:01:26.644Z,8.40
2023-03-06T03:03:55.038Z,8.40
2023-03-06T03:06:22.869Z,8.40
2023-03-06T03:08:51.812Z,8.40
2023-03-06T03:11:19.981Z,8.30
2023-03-06T03:13:48.671Z,8.30
2023-03-06T03:16:22.002Z,8.30
2023-03-06T03:18:51.415Z,8.30
2023-03-06T03:21:22.784Z,8.20
2023-03-06T03:23:50.867Z,8.20
2023-03-06T03:26:21.844Z,8.20
2023-03-06T03:29:05.727Z,8.20
2023-03-06T03:31:34.074Z,8.20
2023-03-06T03:34:03.438Z,8.20
2023-03-06T03:36:34.910Z,8.20
2023-03-06T03:39:04.410Z,8.10
2023-03-06T03:41:33.992Z,8.10
2023-03-06T03:44:04.357Z,8.10
2023-03-06T03:46:33.507Z,8.10
2023-03-06T03:49:02.959Z,8.10
2023-03-06T03:51:30.989Z,8.00
2023-03-06T03:54:00.213Z,8.00
2023-03-06T03:56:33.308Z,8.00
2023-03-06T03:59:07.402Z,8.00
2023-03-06T04:01:42.175Z,8.00
2023-03-06T04:04:10.128Z,7.90
2023-03-06T04:06:39.305Z,7.90
2023-03-06T04:09:08.288Z,7.90
2023-03-06T04:11:37.842Z,7.90
2023-03-06T04:14:05.806Z,7.90
2023-03-06T04:16:34.738Z,7.90
2023-03-06T04:19:03.348Z,7.90
2023-03-06T04:21:32.853Z,7.90
2023-03-06T04:24:01.226Z,7.90
2023-03-06T04:26:29.257Z,7.90
2023-03-06T04:28:58.809Z,7.80
2023-03-06T04:31:26.974Z,7.90
2023-03-06T04:33:54.941Z,7.90
2023-03-06T04:36:29.767Z,7.80
2023-03-06T04:39:02.212Z,7.80
2023-03-06T04:41:32.236Z,7.70
2023-03-06T04:44:00.243Z,7.70
2023-03-06T04:46:28.090Z,7.70
2023-03-06T04:48:56.133Z,7.60
2023-03-06T04:51:24.310Z,7.60
2023-03-06T04:53:53.144Z,7.50
2023-03-06T04:56:21.095Z,7.50
2023-03-06T04:58:49.045Z,7.50
2023-03-06T05:01:17.064Z,7.50
2023-03-06T05:03:45.114Z,7.50
2023-03-06T05:06:12.922Z,7.50
2023-03-06T05:08:40.900Z,7.50
2023-03-06T05:11:09.145Z,7.50
2023-03-06T05:13:37.094Z,7.50
2023-03-06T05:16:06.498Z,7.50
2023-03-06T05:18:34.949Z,7.60
2023-03-06T05:21:03.652Z,7.60
2023-03-06T05:23:33.735Z,7.60
2023-03-06T05:26:01.806Z,7.60
2023-03-06T05:28:29.521Z,7.60
2023-03-06T05:30:57.489Z,7.50
2023-03-06T05:33:26.869Z,7.50
2023-03-06T05:35:54.748Z,7.50
2023-03-06T05:38:23.486Z,7.50
2023-03-06T05:40:51.472Z,7.50
2023-03-06T05:43:19.407Z,7.50
2023-03-06T05:45:47.296Z,7.60
2023-03-06T05:48:15.213Z,7.60
2023-03-06T05:50:43.163Z,7.60
2023-03-06T05:53:11.084Z,7.60
2023-03-06T05:55:39.019Z,7.60
2023-03-06T05:58:06.788Z,7.60
2023-03-06T06:00:34.722Z,7.70
2023-03-06T06:03:02.670Z,7.70
2023-03-06T06:05:30.585Z,7.80
2023-03-06T06:07:58.322Z,7.90
2023-03-06T06:10:26.324Z,8.10
2023-03-06T06:12:54.502Z,8.20
2023-03-06T06:15:22.412Z,8.30
2023-03-06T06:17:50.242Z,8.40
2023-03-06T06:20:18.519Z,8.60
2023-03-06T06:22:46.460Z,8.70
2023-03-06T06:25:14.623Z,8.90
2023-03-06T06:27:42.494Z,9.00
2023-03-06T06:30:12.510Z,9.20
2023-03-06T06:32:40.693Z,9.40
2023-03-06T06:35:08.789Z,9.50
2023-03-06T06:37:36.733Z,9.60
2023-03-06T06:40:05.531Z,9.70
2023-03-06T06:42:39.497Z,9.90
2023-03-06T06:45:11.167Z,10.00
2023-03-06T06:47:41.912Z,10.10
2023-03-06T06:50:13.857Z,10.20
2023-03-06T06:52:43.558Z,10.30
2023-03-06T06:55:12.744Z,10.30
2023-03-06T06:57:42.391Z,10.40
2023-03-06T07:00:13.574Z,10.50
2023-03-06T07:02:41.773Z,10.60
2023-03-06T07:05:10.039Z,10.70
2023-03-06T07:07:39.004Z,10.80
2023-03-06T07:10:12.972Z,10.80
2023-03-06T07:12:40.906Z,10.90
2023-03-06T07:15:09.286Z,11.00
2023-03-06T07:17:37.229Z,11.10
2023-03-06T07:20:07.313Z,11.20
2023-03-06T07:22:48.669Z,11.30
2023-03-06T07:25:19.554Z,11.40
2023-03-06T07:27:53.292Z,11.50
2023-03-06T07:30:24.494Z,11.50
2023-03-06T07:33:01.349Z,11.50
2023-03-06T07:35:29.986Z,11.40
2023-03-06T07:37:58.745Z,11.30
2023-03-06T07:40:26.946Z,11.50
2023-03-06T07:43:06.103Z,11.60
2023-03-06T07:45:47.331Z,11.80
2023-03-06T07:48:15.665Z,12.00
2023-03-06T07:50:43.729Z,12.00
2023-03-06T07:53:11.833Z,12.10
2023-03-06T07:55:41.994Z,12.30
2023-03-06T07:58:09.750Z,12.40
2023-03-06T08:00:37.488Z,12.50
2023-03-06T08:03:05.364Z,12.60
2023-03-06T08:05:33.043Z,12.70
2023-03-06T08:08:01.149Z,12.80
2023-03-06T08:10:28.959Z,13.10
2023-03-06T08:12:57.343Z,13.30
2023-03-06T08:15:25.210Z,13.40
2023-03-06T08:17:53.513Z,13.50
2023-03-06T08:20:21.302Z,13.70
2023-03-06T08:22:49.366Z,13.80
2023-03-06T08:25:17.611Z,13.90
2023-03-06T08:27:47.666Z,14.00
2023-03-06T08:30:15.945Z,14.20
2023-03-06T08:32:43.832Z,14.30
2023-03-06T08:35:11.873Z,14.40
2023-03-06T08:37:39.769Z,14.40
2023-03-06T08:40:08.526Z,14.40
2023-03-06T08:42:36.340Z,14.60
2023-03-06T08:45:04.600Z,14.50
2023-03-06T08:47:32.337Z,14.40
2023-03-06T08:50:00.833Z,14.60
2023-03-06T08:52:28.681Z,14.70
2023-03-06T08:54:58.607Z,14.90
2023-03-06T08:57:26.649Z,14.80
2023-03-06T08:59:57.218Z,14.80
2023-03-06T09:02:25.211Z,15.00
2023-03-06T09:04:54.361Z,14.90
2023-03-06T09:07:22.755Z,14.90
2023-03-06T09:09:50.686Z,15.00
2023-03-06T09:12:18.649Z,15.40
2023-03-06T09:14:46.494Z,15.40
2023-03-06T09:17:14.795Z,15.60
2023-03-06T09:19:42.610Z,15.80
2023-03-06T09:22:10.722Z,15.80
2023-03-06T09:24:38.543Z,16.10
2023-03-06T09:27:06.492Z,16.10
2023-03-06T09:29:37.376Z,16.00
2023-03-06T09:32:05.451Z,16.40
2023-03-06T09:34:33.603Z,16.50
2023-03-06T09:37:03.765Z,16.60
2023-03-06T09:39:31.954Z,16.70
2023-03-06T09:41:59.869Z,17.00
2023-03-06T09:44:34.281Z,17.50
2023-03-06T09:47:40.274Z,17.50
2023-03-06T09:50:32.538Z,17.00
2023-03-06T09:53:39.077Z,16.60
2023-03-06T09:56:15.132Z,17.20
2023-03-06T09:58:50.494Z,16.90
2023-03-06T10:01:31.011Z,16.30
2023-03-06T10:04:11.183Z,15.90
2023-03-06T10:06:55.609Z,16.00
2023-03-06T10:09:28.445Z,16.30
2023-03-06T10:12:07.183Z,17.00
2023-03-06T10:14:49.118Z,17.60
2023-03-06T10:17:21.005Z,18.20
2023-03-06T10:19:49.915Z,18.50
2023-03-06T10:22:35.769Z,18.10
2023-03-06T10:25:28.706Z,17.70
2023-03-06T10:28:16.487Z,18.20
2023-03-06T10:30:51.301Z,18.60
2023-03-06T10:33:42.356Z,19.40
2023-03-06T10:36:17.342Z,20.00
2023-03-06T10:38:48.900Z,19.30
2023-03-06T10:41:31.789Z,18.90
2023-03-06T10:44:05.889Z,18.80
2023-03-06T10:46:37.270Z,18.80
2023-03-06T10:49:26.877Z,19.60
2023-03-06T10:51:59.884Z,19.60
2023-03-06T10:54:36.524Z,19.50
2023-03-06T10:57:26.574Z,20.00
2023-03-06T10:59:55.782Z,20.80
2023-03-06T11:02:28.374Z,20.80
2023-03-06T11:04:58.473Z,19.80
2023-03-06T11:07:32.114Z,19.00
2023-03-06T11:10:19.967Z,19.10
2023-03-06T11:13:22.546Z,20.00
2023-03-06T11:16:00.930Z,20.40
2023-03-06T11:18:56.629Z,19.40
2023-03-06T11:21:31.359Z,19.60
2023-03-06T11:24:20.636Z,19.30
2023-03-06T11:27:03.790Z,19.90
2023-03-06T11:29:44.319Z,19.20
2023-03-06T11:32:15.405Z,18.90
2023-03-06T11:34:53.671Z,19.00
2023-03-06T11:37:34.192Z,18.10
2023-03-06T11:40:06.134Z,17.80
2023-03-06T11:42:38.757Z,17.50
2023-03-06T11:45:24.507Z,17.80
2023-03-06T11:48:20.513Z,17.40
2023-03-06T11:50:48.259Z,17.10
2023-03-06T11:53:24.184Z,16.50
2023-03-06T11:56:01.028Z,16.50
2023-03-06T11:59:02.628Z,16.40
2023-03-06T12:02:00.897Z,16.20
2023-03-06T12:05:01.386Z,16.40
2023-03-06T12:07:45.989Z,16.70
2023-03-06T12:10:28.141Z,16.90
2023-03-06T12:13:28.093Z,16.80
2023-03-06T12:16:19.186Z,16.90
2023-03-06T12:19:05.432Z,17.00
2023-03-06T12:22:05.287Z,16.80
2023-03-06T12:25:00.536Z,16.50
2023-03-06T12:28:16.108Z,16.30
2023-03-06T12:31:03.151Z,16.80
2023-03-06T12:33:47.729Z,16.80
2023-03-06T12:36:44.572Z,16.40
2023-03-06T12:39:30.085Z,16.30
2023-03-06T12:42:17.817Z,16.40
2023-03-06T12:45:11.298Z,16.50
2023-03-06T12:47:51.773Z,16.40
2023-03-06T12:50:26.696Z,16.80
2023-03-06T12:52:58.098Z,16.90
2023-03-06T12:55:26.845Z,16.70
2023-03-06T12:57:54.488Z,16.40
2023-03-06T13:01:04.181Z,16.30
2023-03-06T13:03:48.193Z,15.50
2023-03-06T13:06:29.050Z,15.10
2023-03-06T13:09:09.838Z,15.10
2023-03-06T13:12:01.941Z,15.00
2023-03-06T13:14:42.315Z,15.10
2023-03-06T13:17:28.168Z,15.00
2023-03-06T13:20:35.250Z,15.10
2023-03-06T13:23:29.434Z,14.80
2023-03-06T13:26:02.624Z,14.70
2023-03-06T13:28:48.178Z,14.70
2023-03-06T13:31:33.301Z,14.70
2023-03-06T13:34:06.295Z,14.80
2023-03-06T13:36:37.123Z,14.80
2023-03-06T13:39:09.206Z,14.70
2023-03-06T13:42:07.578Z,14.60
2023-03-06T13:44:43.002Z,14.50
2023-03-06T13:47:30.873Z,14.60
2023-03-06T13:49:59.648Z,14.50
2023-03-06T13:52:52.770Z,14.60
2023-03-06T13:55:44.603Z,14.70
2023-03-06T13:58:27.956Z,14.50
2023-03-06T14:01:22.053Z,14.50
2023-03-06T14:04:14.633Z,14.50
2023-03-06T14:06:52.384Z,14.50
2023-03-06T14:09:25.632Z,14.50
2023-03-06T14:12:02.646Z,14.50
2023-03-06T14:14:42.173Z,14.40
2023-03-06T14:17:23.913Z,14.40
2023-03-06T14:19:52.153Z,14.50
2023-03-06T14:22:24.506Z,14.60
2023-03-06T14:24:57.764Z,14.60
2023-03-06T14:27:52.558Z,14.50
2023-03-06T14:30:25.214Z,14.30
2023-03-06T14:32:55.776Z,14.20
2023-03-06T14:35:32.572Z,14.10
2023-03-06T14:38:08.966Z,14.10
2023-03-06T14:40:43.110Z,14.00
2023-03-06T14:43:24.241Z,13.80
2023-03-06T14:45:56.552Z,13.60
2023-03-06T14:48:27.158Z,13.40
2023-03-06T14:50:58.136Z,13.00
2023-03-06T14:53:32.895Z,12.70
2023-03-06T14:56:01.996Z,12.60
2023-03-06T14:58:59.941Z,12.40
2023-03-06T15:01:33.927Z,12.10
2023-03-06T15:04:02.622Z,11.60
2023-03-06T15:06:39.884Z,11.50
2023-03-06T15:09:27.276Z,11.40
2023-03-06T15:12:04.715Z,11.30
2023-03-06T15:14:48.332Z,11.00
2023-03-06T15:17:22.834Z,10.70
2023-03-06T15:19:55.116Z,10.60
2023-03-06T15:22:31.198Z,10.60
2023-03-06T15:25:31.040Z,10.70
2023-03-06T15:28:02.693Z,10.90
2023-03-06T15:30:38.131Z,11.20
2023-03-06T15:33:32.497Z,11.30
2023-03-06T15:36:03.067Z,11.30
2023-03-06T15:38:42.163Z,11.40
2023-03-06T15:41:36.003Z,11.40
2023-03-06T15:44:11.866Z,11.30
2023-03-06T15:46:39.965Z,11.30
2023-03-06T15:49:15.357Z,11.30
2023-03-06T15:51:43.482Z,11.40
2023-03-06T15:54:12.793Z,11.40
2023-03-06T15:56:44.994Z,11.40
2023-03-06T15:59:23.100Z,11.40
2023-03-06T16:01:51.787Z,11.50
2023-03-06T16:04:20.222Z,11.40
2023-03-06T16:06:48.457Z,11.40
2023-03-06T16:09:20.856Z,11.40
2023-03-06T16:11:49.036Z,11.50
2023-03-06T16:14:24.225Z,11.60
2023-03-06T16:16:54.399Z,11.50
2023-03-06T16:19:27.440Z,11.50
2023-03-06T16:21:57.215Z,11.50
2023-03-06T16:24:26.741Z,11.50
2023-03-06T16:26:55.584Z,11.50
2023-03-06T16:29:26.786Z,11.50
2023-03-06T16:31:56.822Z,11.60
2023-03-06T16:34:25.686Z,11.60
2023-03-06T16:36:54.087Z,11.60
2023-03-06T16:39:24.311Z,11.60
2023-03-06T16:41:52.720Z,11.60
2023-03-06T16:44:21.472Z,11.60
2023-03-06T16:46:50.969Z,11.50
2023-03-06T16:49:28.553Z,11.50
2023-03-06T16:51:56.738Z,11.50
2023-03-06T16:54:26.451Z,11.50
2023-03-06T16:56:54.374Z,11.50
2023-03-06T16:59:22.046Z,11.50
2023-03-06T17:01:50.140Z,11.50
2023-03-06T17:04:18.125Z,11.50
2023-03-06T17:06:46.186Z,11.50
2023-03-06T17:09:15.117Z,11.50
2023-03-06T17:11:47.123Z,11.40
2023-03-06T17:14:15.025Z,11.30
2023-03-06T17:16:43.089Z,11.40
2023-03-06T17:19:15.556Z,11.40
2023-03-06T17:21:44.813Z,11.50
2023-03-06T17:24:12.536Z,11.40
2023-03-06T17:26:40.986Z,11.50
2023-03-06T17:29:09.966Z,11.50
2023-03-06T17:31:37.953Z,11.50
2023-03-06T17:34:05.966Z,11.50
2023-03-06T17:36:34.311Z,11.50
2023-03-06T17:39:03.526Z,11.40
2023-03-06T17:41:33.259Z,11.40
2023-03-06T17:44:02.153Z,11.40
2023-03-06T17:46:32.322Z,11.40
2023-03-06T17:49:00.706Z,11.40
2023-03-06T17:51:29.040Z,11.50
2023-03-06T17:53:57.929Z,11.50
2023-03-06T17:56:26.520Z,11.40
2023-03-06T17:58:54.645Z,11.50
2023-03-06T18:01:27.905Z,11.50
2023-03-06T18:03:55.856Z,11.50
2023-03-06T18:06:25.452Z,11.40
2023-03-06T18:08:54.857Z,11.50
2023-03-06T18:11:23.104Z,11.50
2023-03-06T18:13:51.391Z,11.50
2023-03-06T18:16:23.401Z,11.50
2023-03-06T18:18:55.866Z,11.50
2023-03-06T18:21:24.925Z,11.60
2023-03-06T18:23:52.943Z,11.60
2023-03-06T18:26:26.472Z,11.70
2023-03-06T18:28:58.796Z,11.60
2023-03-06T18:31:33.776Z,11.70
2023-03-06T18:34:04.991Z,11.70
2023-03-06T18:36:34.563Z,11.70
2023-03-06T18:39:04.232Z,11.70
2023-03-06T18:41:32.678Z,11.60
2023-03-06T18:44:02.123Z,11.50
2023-03-06T18:46:33.638Z,11.50
2023-03-06T18:49:02.311Z,11.50
2023-03-06T18:51:30.820Z,11.30
2023-03-06T18:54:00.409Z,11.30
2023-03-06T18:56:28.472Z,11.30
2023-03-06T18:58:56.869Z,11.30
2023-03-06T19:01:24.902Z,11.30
2023-03-06T19:03:52.596Z,11.30
2023-03-06T19:06:20.610Z,11.30
2023-03-06T19:08:48.450Z,11.30
2023-03-06T19:11:18.569Z,11.40
2023-03-06T19:13:46.523Z,11.30
2023-03-06T19:16:20.538Z,11.30
2023-03-06T19:18:48.690Z,11.40
2023-03-06T19:21:19.756Z,11.30
2023-03-06T19:23:47.861Z,11.30
2023-03-06T19:26:16.488Z,11.40
2023-03-06T19:28:44.278Z,11.30
2023-03-06T19:31:13.649Z,11.30
2023-03-06T19:33:43.097Z,11.40
2023-03-06T19:36:13.466Z,11.40
2023-03-06T19:38:42.260Z,11.40
2023-03-06T19:41:15.695Z,11.40
2023-03-06T19:43:44.592Z,11.40
2023-03-06T19:46:15.517Z,11.40
2023-03-06T19:48:44.483Z,11.50
2023-03-06T19:51:12.430Z,11.40
2023-03-06T19:53:41.135Z,11.40
2023-03-06T19:56:24.511Z,11.40
2023-03-06T19:58:52.984Z,11.50
2023-03-06T20:01:23.581Z,11.60
2023-03-06T20:03:59.580Z,11.60
2023-03-06T20:06:33.973Z,11.60
2023-03-06T20:09:04.399Z,11.60
2023-03-06T20:11:32.984Z,11.50
2023-03-06T20:14:02.901Z,11.60
2023-03-06T20:16:32.463Z,11.60
2023-03-06T20:19:01.636Z,11.60
2023-03-06T20:21:32.369Z,11.60
2023-03-06T20:24:00.655Z,11.50
2023-03-06T20:26:30.124Z,11.50
2023-03-06T20:28:59.632Z,11.60
2023-03-06T20:31:30.403Z,11.60
2023-03-06T20:33:59.905Z,11.60
2023-03-06T20:36:33.014Z,11.60
2023-03-06T20:39:03.282Z,11.60
2023-03-06T20:41:32.088Z,11.60
2023-03-06T20:44:01.987Z,11.60
2023-03-06T20:46:30.618Z,11.60
2023-03-06T20:49:00.004Z,11.60
2023-03-06T20:51:33.030Z,11.60
2023-03-06T20:54:02.962Z,11.60
2023-03-06T20:56:33.327Z,11.60
2023-03-06T20:59:02.384Z,11.60
2023-03-06T21:01:32.771Z,11.60
2023-03-06T21:04:02.174Z,11.70
2023-03-06T21:06:30.796Z,11.70
2023-03-06T21:08:59.994Z,11.60
2023-03-06T21:11:28.054Z,11.60
2023-03-06T21:13:56.951Z,11.60
2023-03-06T21:16:26.821Z,11.60
2023-03-06T21:18:56.890Z,11.60
2023-03-06T21:21:28.571Z,11.60
2023-03-06T21:23:56.862Z,11.60
2023-03-06T21:26:27.696Z,11.60
2023-03-06T21:28:58.553Z,11.60
2023-03-06T21:31:28.988Z,11.60
2023-03-06T21:33:59.156Z,11.70
2023-03-06T21:36:27.920Z,11.60
2023-03-06T21:38:56.090Z,11.60
2023-03-06T21:41:27.933Z,11.60
2023-03-06T21:43:57.817Z,11.60
2023-03-06T21:46:27.066Z,11.60
2023-03-06T21:48:55.966Z,11.60
2023-03-06T21:51:25.351Z,11.60
2023-03-06T21:53:54.403Z,11.60
2023-03-06T21:56:25.544Z,11.50
2023-03-06T21:58:53.539Z,11.50
2023-03-06T22:01:24.527Z,11.40
2023-03-06T22:03:53.110Z,11.40
2023-03-06T22:06:24.332Z,11.40
2023-03-06T22:08:52.356Z,11.50
2023-03-06T22:11:22.757Z,11.50
2023-03-06T22:13:51.792Z,11.50
2023-03-06T22:16:21.439Z,11.50
2023-03-06T22:18:51.254Z,11.50
2023-03-06T22:21:21.698Z,11.50
2023-03-06T22:23:54.352Z,11.50
2023-03-06T22:26:22.639Z,11.50
2023-03-06T22:28:50.626Z,11.50
2023-03-06T22:31:24.562Z,11.50
2023-03-06T22:33:56.846Z,11.50
2023-03-06T22:36:25.497Z,11.60
2023-03-06T22:38:58.519Z,11.60
2023-03-06T22:41:27.359Z,11.50
2023-03-06T22:44:00.191Z,11.60
2023-03-06T22:46:29.084Z,11.50
2023-03-06T22:48:58.198Z,11.50
2023-03-06T22:51:27.104Z,11.50
2023-03-06T22:53:55.207Z,11.50
2023-03-06T22:56:23.794Z,11.60
2023-03-06T22:58:52.424Z,11.60
2023-03-06T23:01:26.257Z,11.60
2023-03-06T23:03:56.652Z,11.60
2023-03-06T23:06:30.843Z,11.60
2023-03-06T23:09:17.796Z,11.60
2023-03-06T23:12:04.326Z,11.60
2023-03-06T23:14:51.488Z,11.60
2023-03-06T23:17:37.648Z,11.50
2023-03-06T23:20:24.161Z,11.50
2023-03-06T23:23:11.874Z,11.40
2023-03-06T23:25:43.777Z,11.40
2023-03-06T23:28:12.357Z,11.40
2023-03-06T23:30:40.712Z,11.40
2023-03-06T23:33:09.411Z,11.40
2023-03-06T23:35:39.674Z,11.40
2023-03-06T23:38:07.690Z,11.30
2023-03-06T23:40:38.988Z,11.30
2023-03-06T23:43:07.340Z,11.30
2023-03-06T23:45:35.099Z,11.20
2023-03-06T23:48:03.225Z,11.20
2023-03-06T23:50:32.246Z,11.20
2023-03-06T23:53:02.749Z,11.30
2023-03-06T23:55:30.831Z,11.30
2023-03-06T23:57:58.630Z,11.30
